sensor_id;sensor_type;location;lat;lon;timestamp;temperature;humidity
42905;DHT22;28550;51.228;4.528;2023-05-07T00:00:33;15.60;98.40
42905;DHT22;28550;51.228;4.528;2023-05-07T00:03:08;15.60;98.30
42905;DHT22;28550;51.228;4.528;2023-05-07T00:05:33;15.60;98.10
42905;DHT22;28550;51.228;4.528;2023-05-07T00:07:59;15.60;97.80
42905;DHT22;28550;51.228;4.528;2023-05-07T00:10:31;15.70;97.80
42905;DHT22;28550;51.228;4.528;2023-05-07T00:12:57;15.70;97.50
42905;DHT22;28550;51.228;4.528;2023-05-07T00:15:26;15.70;96.70
42905;DHT22;28550;51.228;4.528;2023-05-07T00:17:52;15.70;96.40
42905;DHT22;28550;51.228;4.528;2023-05-07T00:20:17;15.80;96.30
42905;DHT22;28550;51.228;4.528;2023-05-07T00:22:43;15.70;97.10
42905;DHT22;28550;51.228;4.528;2023-05-07T00:25:09;15.60;97.60
42905;DHT22;28550;51.228;4.528;2023-05-07T00:27:35;15.60;99.50
42905;DHT22;28550;51.228;4.528;2023-05-07T00:30:01;15.60;99.40
42905;DHT22;28550;51.228;4.528;2023-05-07T00:32:27;15.60;99.00
42905;DHT22;28550;51.228;4.528;2023-05-07T00:34:53;15.60;96.60
42905;DHT22;28550;51.228;4.528;2023-05-07T00:37:18;15.80;96.10
42905;DHT22;28550;51.228;4.528;2023-05-07T00:39:44;15.80;94.60
42905;DHT22;28550;51.228;4.528;2023-05-07T00:48:11;15.70;96.40
42905;DHT22;28550;51.228;4.528;2023-05-07T00:50:42;15.60;98.00
42905;DHT22;28550;51.228;4.528;2023-05-07T00:53:12;15.50;99.50
42905;DHT22;28550;51.228;4.528;2023-05-07T00:55:38;15.50;99.00
42905;DHT22;28550;51.228;4.528;2023-05-07T00:58:13;15.40;99.90
42905;DHT22;28550;51.228;4.528;2023-05-07T01:00:39;15.30;99.90
42905;DHT22;28550;51.228;4.528;2023-05-07T01:03:17;15.40;99.90
42905;DHT22;28550;51.228;4.528;2023-05-07T01:05:51;15.40;99.90
42905;DHT22;28550;51.228;4.528;2023-05-07T01:08:18;15.40;99.90
42905;DHT22;28550;51.228;4.528;2023-05-07T01:10:44;15.30;99.90
42905;DHT22;28550;51.228;4.528;2023-05-07T01:13:18;15.30;99.90
42905;DHT22;28550;51.228;4.528;2023-05-07T01:16:06;15.40;99.90
42905;DHT22;28550;51.228;4.528;2023-05-07T01:18:32;15.40;99.90
42905;DHT22;28550;51.228;4.528;2023-05-07T01:20:58;15.30;99.90
42905;DHT22;28550;51.228;4.528;2023-05-07T01:23:31;15.10;99.90
42905;DHT22;28550;51.228;4.528;2023-05-07T01:25:58;15.00;99.90
42905;DHT22;28550;51.228;4.528;2023-05-07T01:28:33;14.90;99.90
42905;DHT22;28550;51.228;4.528;2023-05-07T01:31:03;14.90;99.90
42905;DHT22;28550;51.228;4.528;2023-05-07T01:33:39;14.80;99.90
42905;DHT22;28550;51.228;4.528;2023-05-07T01:36:06;14.90;99.90
42905;DHT22;28550;51.228;4.528;2023-05-07T01:38:35;14.90;99.90
42905;DHT22;28550;51.228;4.528;2023-05-07T01:41:07;15.00;99.90
42905;DHT22;28550;51.228;4.528;2023-05-07T01:43:33;15.00;99.90
42905;DHT22;28550;51.228;4.528;2023-05-07T01:46:00;15.10;99.90
42905;DHT22;28550;51.228;4.528;2023-05-07T01:48:27;15.10;99.90
42905;DHT22;28550;51.228;4.528;2023-05-07T01:51:27;15.20;99.90
42905;DHT22;28550;51.228;4.528;2023-05-07T01:54:05;15.20;99.90
42905;DHT22;28550;51.228;4.528;2023-05-07T01:56:32;15.10;99.90
42905;DHT22;28550;51.228;4.528;2023-05-07T01:58:57;15.00;99.90
42905;DHT22;28550;51.228;4.528;2023-05-07T02:01:23;15.00;99.90
42905;DHT22;28550;51.228;4.528;2023-05-07T02:04:32;14.90;99.90
42905;DHT22;28550;51.228;4.528;2023-05-07T02:06:58;14.80;99.90
42905;DHT22;28550;51.228;4.528;2023-05-07T02:09:30;14.80;99.90
42905;DHT22;28550;51.228;4.528;2023-05-07T02:11:56;14.70;99.90
42905;DHT22;28550;51.228;4.528;2023-05-07T02:14:22;14.80;99.90
42905;DHT22;28550;51.228;4.528;2023-05-07T02:16:47;14.80;99.90
42905;DHT22;28550;51.228;4.528;2023-05-07T02:19:13;14.70;99.90
42905;DHT22;28550;51.228;4.528;2023-05-07T02:22:06;14.70;99.90
42905;DHT22;28550;51.228;4.528;2023-05-07T02:24:35;14.60;99.90
42905;DHT22;28550;51.228;4.528;2023-05-07T02:27:15;14.70;99.90
42905;DHT22;28550;51.228;4.528;2023-05-07T02:29:47;14.60;99.90
42905;DHT22;28550;51.228;4.528;2023-05-07T02:32:25;14.60;99.90
42905;DHT22;28550;51.228;4.528;2023-05-07T02:34:51;14.70;99.90
42905;DHT22;28550;51.228;4.528;2023-05-07T02:37:17;14.70;99.90
42905;DHT22;28550;51.228;4.528;2023-05-07T02:39:46;14.70;99.90
42905;DHT22;28550;51.228;4.528;2023-05-07T02:42:21;14.80;99.90
42905;DHT22;28550;51.228;4.528;2023-05-07T02:44:53;14.90;99.90
42905;DHT22;28550;51.228;4.528;2023-05-07T02:47:22;15.00;99.90
42905;DHT22;28550;51.228;4.528;2023-05-07T02:49:48;15.10;99.90
42905;DHT22;28550;51.228;4.528;2023-05-07T02:52:13;15.20;99.90
42905;DHT22;28550;51.228;4.528;2023-05-07T02:54:39;15.20;99.90
42905;DHT22;28550;51.228;4.528;2023-05-07T02:57:05;15.10;99.90
42905;DHT22;28550;51.228;4.528;2023-05-07T02:59:31;15.20;99.90
42905;DHT22;28550;51.228;4.528;2023-05-07T03:01:56;15.20;99.90
42905;DHT22;28550;51.228;4.528;2023-05-07T03:04:22;15.10;99.90
42905;DHT22;28550;51.228;4.528;2023-05-07T03:06:48;15.20;99.90
42905;DHT22;28550;51.228;4.528;2023-05-07T03:09:14;15.30;99.90
42905;DHT22;28550;51.228;4.528;2023-05-07T03:11:43;15.20;99.90
42905;DHT22;28550;51.228;4.528;2023-05-07T03:14:18;15.20;99.90
42905;DHT22;28550;51.228;4.528;2023-05-07T03:16:44;15.30;99.90
42905;DHT22;28550;51.228;4.528;2023-05-07T03:19:19;15.20;99.90
42905;DHT22;28550;51.228;4.528;2023-05-07T03:21:47;15.10;99.90
42905;DHT22;28550;51.228;4.528;2023-05-07T03:24:16;15.20;99.90
42905;DHT22;28550;51.228;4.528;2023-05-07T03:26:42;15.30;99.90
42905;DHT22;28550;51.228;4.528;2023-05-07T03:29:08;15.40;99.90
42905;DHT22;28550;51.228;4.528;2023-05-07T03:31:36;15.50;99.90
42905;DHT22;28550;51.228;4.528;2023-05-07T03:34:02;15.50;99.90
42905;DHT22;28550;51.228;4.528;2023-05-07T03:36:28;15.50;99.90
42905;DHT22;28550;51.228;4.528;2023-05-07T03:38:54;15.60;99.90
42905;DHT22;28550;51.228;4.528;2023-05-07T03:41:19;15.60;99.90
42905;DHT22;28550;51.228;4.528;2023-05-07T03:43:49;15.60;99.90
42905;DHT22;28550;51.228;4.528;2023-05-07T03:46:15;15.60;99.90
42905;DHT22;28550;51.228;4.528;2023-05-07T03:49:03;15.60;99.90
42905;DHT22;28550;51.228;4.528;2023-05-07T03:51:30;15.60;99.90
42905;DHT22;28550;51.228;4.528;2023-05-07T03:54:08;15.60;99.90
42905;DHT22;28550;51.228;4.528;2023-05-07T03:56:42;15.70;99.90
42905;DHT22;28550;51.228;4.528;2023-05-07T04:02:07;15.70;99.90
42905;DHT22;28550;51.228;4.528;2023-05-07T04:04:32;15.60;99.90
42905;DHT22;28550;51.228;4.528;2023-05-07T04:06:58;15.30;99.90
42905;DHT22;28550;51.228;4.528;2023-05-07T04:09:36;15.20;99.90
42905;DHT22;28550;51.228;4.528;2023-05-07T04:12:01;15.10;99.90
42905;DHT22;28550;51.228;4.528;2023-05-07T04:14:27;15.00;99.90
42905;DHT22;28550;51.228;4.528;2023-05-07T04:17:01;15.10;99.90
42905;DHT22;28550;51.228;4.528;2023-05-07T04:19:35;15.20;99.90
42905;DHT22;28550;51.228;4.528;2023-05-07T04:22:12;15.20;99.90
42905;DHT22;28550;51.228;4.528;2023-05-07T04:24:38;15.30;99.90
42905;DHT22;28550;51.228;4.528;2023-05-07T04:27:04;15.20;99.90
42905;DHT22;28550;51.228;4.528;2023-05-07T04:29:30;15.10;99.90
42905;DHT22;28550;51.228;4.528;2023-05-07T04:31:56;15.20;99.90
42905;DHT22;28550;51.228;4.528;2023-05-07T04:34:21;15.10;99.90
42905;DHT22;28550;51.228;4.528;2023-05-07T04:36:47;15.10;99.90
42905;DHT22;28550;51.228;4.528;2023-05-07T04:39:13;15.20;99.90
42905;DHT22;28550;51.228;4.528;2023-05-07T04:41:39;15.40;99.90
42905;DHT22;28550;51.228;4.528;2023-05-07T04:44:05;15.30;99.90
42905;DHT22;28550;51.228;4.528;2023-05-07T04:46:31;15.40;99.90
42905;DHT22;28550;51.228;4.528;2023-05-07T04:48:57;15.60;99.90
42905;DHT22;28550;51.228;4.528;2023-05-07T04:51:22;15.70;99.90
42905;DHT22;28550;51.228;4.528;2023-05-07T04:54:03;15.90;99.90
42905;DHT22;28550;51.228;4.528;2023-05-07T04:56:29;16.10;99.90
42905;DHT22;28550;51.228;4.528;2023-05-07T04:59:13;16.20;98.80
42905;DHT22;28550;51.228;4.528;2023-05-07T05:01:55;16.30;99.00
42905;DHT22;28550;51.228;4.528;2023-05-07T05:04:21;16.30;97.40
42905;DHT22;28550;51.228;4.528;2023-05-07T05:06:49;16.30;97.30
42905;DHT22;28550;51.228;4.528;2023-05-07T05:12:41;16.30;98.10
42905;DHT22;28550;51.228;4.528;2023-05-07T05:15:12;16.40;97.30
42905;DHT22;28550;51.228;4.528;2023-05-07T05:17:41;16.50;96.30
42905;DHT22;28550;51.228;4.528;2023-05-07T05:20:16;16.50;93.70
42905;DHT22;28550;51.228;4.528;2023-05-07T05:22:42;16.50;96.10
42905;DHT22;28550;51.228;4.528;2023-05-07T05:25:08;16.40;97.30
42905;DHT22;28550;51.228;4.528;2023-05-07T05:27:52;16.40;97.30
42905;DHT22;28550;51.228;4.528;2023-05-07T05:30:18;16.40;98.80
42905;DHT22;28550;51.228;4.528;2023-05-07T05:32:44;16.50;96.80
42905;DHT22;28550;51.228;4.528;2023-05-07T05:35:10;16.70;93.30
42905;DHT22;28550;51.228;4.528;2023-05-07T05:37:35;16.70;93.00
42905;DHT22;28550;51.228;4.528;2023-05-07T05:40:01;16.70;92.60
42905;DHT22;28550;51.228;4.528;2023-05-07T05:42:33;16.70;92.60
42905;DHT22;28550;51.228;4.528;2023-05-07T05:45:10;16.90;90.20
42905;DHT22;28550;51.228;4.528;2023-05-07T05:47:51;17.10;85.70
42905;DHT22;28550;51.228;4.528;2023-05-07T05:50:28;17.30;81.50
42905;DHT22;28550;51.228;4.528;2023-05-07T05:52:57;17.30;72.10
42905;DHT22;28550;51.228;4.528;2023-05-07T05:55:23;17.40;72.90
42905;DHT22;28550;51.228;4.528;2023-05-07T05:57:49;17.50;69.70
42905;DHT22;28550;51.228;4.528;2023-05-07T06:00:21;17.40;69.10
42905;DHT22;28550;51.228;4.528;2023-05-07T06:02:57;17.40;65.70
42905;DHT22;28550;51.228;4.528;2023-05-07T06:05:32;17.40;71.50
42905;DHT22;28550;51.228;4.528;2023-05-07T06:07:57;17.30;73.90
42905;DHT22;28550;51.228;4.528;2023-05-07T06:10:23;17.20;80.00
42905;DHT22;28550;51.228;4.528;2023-05-07T06:12:49;17.10;86.90
42905;DHT22;28550;51.228;4.528;2023-05-07T06:15:15;17.10;89.00
42905;DHT22;28550;51.228;4.528;2023-05-07T06:17:41;17.10;90.90
42905;DHT22;28550;51.228;4.528;2023-05-07T06:20:07;17.10;88.00
42905;DHT22;28550;51.228;4.528;2023-05-07T06:22:33;17.20;90.00
42905;DHT22;28550;51.228;4.528;2023-05-07T06:25:01;17.40;81.40
42905;DHT22;28550;51.228;4.528;2023-05-07T06:27:27;17.50;75.30
42905;DHT22;28550;51.228;4.528;2023-05-07T06:29:54;17.40;82.70
42905;DHT22;28550;51.228;4.528;2023-05-07T06:33:03;17.50;86.50
42905;DHT22;28550;51.228;4.528;2023-05-07T06:35:28;17.70;78.30
42905;DHT22;28550;51.228;4.528;2023-05-07T06:38:00;18.00;74.30
42905;DHT22;28550;51.228;4.528;2023-05-07T06:40:29;18.20;59.30
42905;DHT22;28550;51.228;4.528;2023-05-07T06:42:55;18.10;56.10
42905;DHT22;28550;51.228;4.528;2023-05-07T06:45:20;18.30;57.90
42905;DHT22;28550;51.228;4.528;2023-05-07T06:47:54;18.30;54.20
42905;DHT22;28550;51.228;4.528;2023-05-07T06:50:22;18.50;49.30
42905;DHT22;28550;51.228;4.528;2023-05-07T06:52:51;18.80;43.40
42905;DHT22;28550;51.228;4.528;2023-05-07T06:57:52;19.30;4.40
42905;DHT22;28550;51.228;4.528;2023-05-07T07:00:19;19.40;1.00
42905;DHT22;28550;51.228;4.528;2023-05-07T07:02:45;19.50;1.00
42905;DHT22;28550;51.228;4.528;2023-05-07T07:05:14;19.70;1.00
42905;DHT22;28550;51.228;4.528;2023-05-07T07:07:40;19.70;1.00
42905;DHT22;28550;51.228;4.528;2023-05-07T07:10:06;19.70;1.00
42905;DHT22;28550;51.228;4.528;2023-05-07T07:12:52;19.50;1.00
42905;DHT22;28550;51.228;4.528;2023-05-07T07:15:20;19.50;1.00
42905;DHT22;28550;51.228;4.528;2023-05-07T07:17:50;19.30;1.00
42905;DHT22;28550;51.228;4.528;2023-05-07T07:20:16;19.20;4.20
42905;DHT22;28550;51.228;4.528;2023-05-07T07:22:42;19.10;14.20
42905;DHT22;28550;51.228;4.528;2023-05-07T07:25:14;19.00;21.70
42905;DHT22;28550;51.228;4.528;2023-05-07T07:27:42;19.10;27.00
42905;DHT22;28550;51.228;4.528;2023-05-07T07:30:08;19.10;26.20
42905;DHT22;28550;51.228;4.528;2023-05-07T07:32:39;19.20;28.30
42905;DHT22;28550;51.228;4.528;2023-05-07T07:35:07;19.40;29.90
42905;DHT22;28550;51.228;4.528;2023-05-07T07:37:33;19.60;10.00
42905;DHT22;28550;51.228;4.528;2023-05-07T07:40:00;19.70;10.10
42905;DHT22;28550;51.228;4.528;2023-05-07T07:42:28;19.90;4.00
42905;DHT22;28550;51.228;4.528;2023-05-07T07:44:54;20.10;1.00
42905;DHT22;28550;51.228;4.528;2023-05-07T07:47:25;20.40;1.00
42905;DHT22;28550;51.228;4.528;2023-05-07T07:50:36;20.70;1.00
42905;DHT22;28550;51.228;4.528;2023-05-07T07:53:02;20.80;1.00
42905;DHT22;28550;51.228;4.528;2023-05-07T07:56:03;20.90;1.00
42905;DHT22;28550;51.228;4.528;2023-05-07T08:05:56;20.90;1.00
42905;DHT22;28550;51.228;4.528;2023-05-07T08:15:25;21.10;1.00
42905;DHT22;28550;51.228;4.528;2023-05-07T08:28:17;21.50;99.90
42905;DHT22;28550;51.228;4.528;2023-05-07T08:34:00;21.60;99.90
42905;DHT22;28550;51.228;4.528;2023-05-07T08:36:26;21.90;99.90
42905;DHT22;28550;51.228;4.528;2023-05-07T08:48:48;22.20;99.90
42905;DHT22;28550;51.228;4.528;2023-05-07T08:51:38;22.20;1.00
42905;DHT22;28550;51.228;4.528;2023-05-07T08:57:45;22.20;99.90
42905;DHT22;28550;51.228;4.528;2023-05-07T09:00:52;22.00;1.00
42905;DHT22;28550;51.228;4.528;2023-05-07T09:03:39;21.80;1.00
42905;DHT22;28550;51.228;4.528;2023-05-07T09:06:43;21.80;1.00
42905;DHT22;28550;51.228;4.528;2023-05-07T09:22:32;21.70;99.90
42905;DHT22;28550;51.228;4.528;2023-05-07T09:24:58;21.40;99.90
42905;DHT22;28550;51.228;4.528;2023-05-07T09:27:25;21.40;99.90
42905;DHT22;28550;51.228;4.528;2023-05-07T09:29:51;21.50;99.90
42905;DHT22;28550;51.228;4.528;2023-05-07T09:32:17;21.60;99.90
42905;DHT22;28550;51.228;4.528;2023-05-07T09:34:47;21.60;99.90
42905;DHT22;28550;51.228;4.528;2023-05-07T09:37:15;21.40;99.90
42905;DHT22;28550;51.228;4.528;2023-05-07T09:39:49;21.40;99.90
42905;DHT22;28550;51.228;4.528;2023-05-07T09:42:22;21.40;99.90
42905;DHT22;28550;51.228;4.528;2023-05-07T09:44:48;21.40;1.00
42905;DHT22;28550;51.228;4.528;2023-05-07T09:47:18;21.40;1.00
42905;DHT22;28550;51.228;4.528;2023-05-07T09:49:50;21.40;1.00
42905;DHT22;28550;51.228;4.528;2023-05-07T09:52:21;21.50;1.00
42905;DHT22;28550;51.228;4.528;2023-05-07T09:54:47;21.50;1.00
42905;DHT22;28550;51.228;4.528;2023-05-07T09:57:15;21.20;99.90
42905;DHT22;28550;51.228;4.528;2023-05-07T09:59:46;21.10;1.00
42905;DHT22;28550;51.228;4.528;2023-05-07T10:02:13;21.20;1.00
42905;DHT22;28550;51.228;4.528;2023-05-07T10:04:40;21.30;1.00
42905;DHT22;28550;51.228;4.528;2023-05-07T10:07:07;21.30;1.00
42905;DHT22;28550;51.228;4.528;2023-05-07T10:09:39;21.30;99.90
42905;DHT22;28550;51.228;4.528;2023-05-07T10:12:07;21.30;1.00
42905;DHT22;28550;51.228;4.528;2023-05-07T10:14:43;21.20;1.00
42905;DHT22;28550;51.228;4.528;2023-05-07T10:17:10;21.30;1.00
42905;DHT22;28550;51.228;4.528;2023-05-07T10:19:37;21.30;1.00
42905;DHT22;28550;51.228;4.528;2023-05-07T10:22:05;21.10;1.00
42905;DHT22;28550;51.228;4.528;2023-05-07T10:24:36;21.30;1.00
42905;DHT22;28550;51.228;4.528;2023-05-07T10:27:09;21.30;1.00
42905;DHT22;28550;51.228;4.528;2023-05-07T10:32:39;21.00;1.00
42905;DHT22;28550;51.228;4.528;2023-05-07T10:35:10;20.80;1.00
42905;DHT22;28550;51.228;4.528;2023-05-07T10:37:37;20.60;10.10
42905;DHT22;28550;51.228;4.528;2023-05-07T10:40:07;20.60;1.00
42905;DHT22;28550;51.228;4.528;2023-05-07T10:42:59;20.60;19.60
42905;DHT22;28550;51.228;4.528;2023-05-07T10:45:27;20.40;34.80
42905;DHT22;28550;51.228;4.528;2023-05-07T10:48:13;20.40;12.60
42905;DHT22;28550;51.228;4.528;2023-05-07T10:50:43;20.10;47.90
42905;DHT22;28550;51.228;4.528;2023-05-07T10:58:32;19.70;56.90
42905;DHT22;28550;51.228;4.528;2023-05-07T11:01:01;19.40;59.80
42905;DHT22;28550;51.228;4.528;2023-05-07T11:03:29;19.30;66.40
42905;DHT22;28550;51.228;4.528;2023-05-07T11:06:15;19.30;78.40
42905;DHT22;28550;51.228;4.528;2023-05-07T11:09:01;19.30;86.10
42905;DHT22;28550;51.228;4.528;2023-05-07T11:11:49;19.30;76.30
42905;DHT22;28550;51.228;4.528;2023-05-07T11:14:48;19.10;79.50
42905;DHT22;28550;51.228;4.528;2023-05-07T11:17:15;19.00;86.20
42905;DHT22;28550;51.228;4.528;2023-05-07T11:19:54;18.90;86.80
42905;DHT22;28550;51.228;4.528;2023-05-07T11:25:07;18.80;94.50
42905;DHT22;28550;51.228;4.528;2023-05-07T11:27:33;18.90;94.70
42905;DHT22;28550;51.228;4.528;2023-05-07T11:29:59;19.00;95.80
42905;DHT22;28550;51.228;4.528;2023-05-07T11:32:30;18.90;93.90
42905;DHT22;28550;51.228;4.528;2023-05-07T11:35:02;19.00;86.00
42905;DHT22;28550;51.228;4.528;2023-05-07T11:37:28;18.90;94.10
42905;DHT22;28550;51.228;4.528;2023-05-07T11:40:07;18.90;85.40
42905;DHT22;28550;51.228;4.528;2023-05-07T11:42:35;19.00;95.90
42905;DHT22;28550;51.228;4.528;2023-05-07T11:45:03;18.90;92.10
42905;DHT22;28550;51.228;4.528;2023-05-07T11:47:51;18.90;89.10
42905;DHT22;28550;51.228;4.528;2023-05-07T11:50:19;18.90;79.30
42905;DHT22;28550;51.228;4.528;2023-05-07T11:53:07;18.80;85.70
42905;DHT22;28550;51.228;4.528;2023-05-07T11:55:36;18.80;92.70
42905;DHT22;28550;51.228;4.528;2023-05-07T11:58:01;19.00;93.40
42905;DHT22;28550;51.228;4.528;2023-05-07T12:00:27;19.00;84.40
42905;DHT22;28550;51.228;4.528;2023-05-07T12:02:53;19.10;84.90
42905;DHT22;28550;51.228;4.528;2023-05-07T12:08:22;19.30;82.80
42905;DHT22;28550;51.228;4.528;2023-05-07T12:10:49;19.40;82.70
42905;DHT22;28550;51.228;4.528;2023-05-07T12:13:22;19.40;83.60
42905;DHT22;28550;51.228;4.528;2023-05-07T12:16:24;19.40;83.00
42905;DHT22;28550;51.228;4.528;2023-05-07T12:19:13;19.50;84.40
42905;DHT22;28550;51.228;4.528;2023-05-07T12:21:39;19.40;73.30
42905;DHT22;28550;51.228;4.528;2023-05-07T12:24:26;19.40;66.30
42905;DHT22;28550;51.228;4.528;2023-05-07T12:26:52;19.50;76.60
42905;DHT22;28550;51.228;4.528;2023-05-07T12:29:21;19.50;72.60
42905;DHT22;28550;51.228;4.528;2023-05-07T12:31:54;19.60;88.90
42905;DHT22;28550;51.228;4.528;2023-05-07T12:34:20;19.60;63.80
42905;DHT22;28550;51.228;4.528;2023-05-07T12:37:02;19.60;72.70
42905;DHT22;28550;51.228;4.528;2023-05-07T12:39:29;19.70;64.50
42905;DHT22;28550;51.228;4.528;2023-05-07T12:41:59;19.60;45.50
42905;DHT22;28550;51.228;4.528;2023-05-07T12:44:34;19.50;53.50
42905;DHT22;28550;51.228;4.528;2023-05-07T12:47:04;19.60;57.60
42905;DHT22;28550;51.228;4.528;2023-05-07T12:49:29;19.50;31.70
42905;DHT22;28550;51.228;4.528;2023-05-07T12:52:07;19.40;52.90
42905;DHT22;28550;51.228;4.528;2023-05-07T12:54:46;19.40;63.90
42905;DHT22;28550;51.228;4.528;2023-05-07T12:57:15;19.50;81.60
42905;DHT22;28550;51.228;4.528;2023-05-07T12:59:57;19.70;67.70
42905;DHT22;28550;51.228;4.528;2023-05-07T13:02:47;19.90;30.60
42905;DHT22;28550;51.228;4.528;2023-05-07T13:05:13;20.00;45.90
42905;DHT22;28550;51.228;4.528;2023-05-07T13:08:07;20.20;57.00
42905;DHT22;28550;51.228;4.528;2023-05-07T13:10:48;20.30;27.40
42905;DHT22;28550;51.228;4.528;2023-05-07T13:13:37;20.50;11.90
42905;DHT22;28550;51.228;4.528;2023-05-07T13:16:34;20.80;1.00
42905;DHT22;28550;51.228;4.528;2023-05-07T13:19:00;21.10;1.00
42905;DHT22;28550;51.228;4.528;2023-05-07T13:21:25;21.40;1.00
42905;DHT22;28550;51.228;4.528;2023-05-07T13:24:07;21.50;1.00
42905;DHT22;28550;51.228;4.528;2023-05-07T13:26:33;21.80;1.00
42905;DHT22;28550;51.228;4.528;2023-05-07T13:28:58;22.00;1.00
42905;DHT22;28550;51.228;4.528;2023-05-07T13:31:24;22.20;1.00
42905;DHT22;28550;51.228;4.528;2023-05-07T13:33:54;22.60;1.00
42905;DHT22;28550;51.228;4.528;2023-05-07T13:36:28;22.70;1.00
42905;DHT22;28550;51.228;4.528;2023-05-07T13:38:56;23.00;1.00
42905;DHT22;28550;51.228;4.528;2023-05-07T13:41:27;23.30;99.90
42905;DHT22;28550;51.228;4.528;2023-05-07T13:44:03;23.90;99.90
42905;DHT22;28550;51.228;4.528;2023-05-07T13:46:29;24.10;1.00
42905;DHT22;28550;51.228;4.528;2023-05-07T13:48:56;24.00;99.90
42905;DHT22;28550;51.228;4.528;2023-05-07T13:51:22;24.00;1.00
42905;DHT22;28550;51.228;4.528;2023-05-07T13:53:47;23.90;1.00
42905;DHT22;28550;51.228;4.528;2023-05-07T13:56:25;23.90;1.00
42905;DHT22;28550;51.228;4.528;2023-05-07T13:58:50;23.80;1.00
42905;DHT22;28550;51.228;4.528;2023-05-07T14:01:17;23.60;1.00
42905;DHT22;28550;51.228;4.528;2023-05-07T14:03:49;23.70;1.00
42905;DHT22;28550;51.228;4.528;2023-05-07T14:09:07;23.50;1.00
42905;DHT22;28550;51.228;4.528;2023-05-07T14:12:04;23.40;99.90
42905;DHT22;28550;51.228;4.528;2023-05-07T14:14:43;23.00;1.00
42905;DHT22;28550;51.228;4.528;2023-05-07T14:17:52;23.10;99.90
42905;DHT22;28550;51.228;4.528;2023-05-07T14:20:20;23.20;1.00
42905;DHT22;28550;51.228;4.528;2023-05-07T14:22:46;23.30;99.90
42905;DHT22;28550;51.228;4.528;2023-05-07T14:29:03;23.70;99.90
42905;DHT22;28550;51.228;4.528;2023-05-07T14:32:18;23.70;1.00
42905;DHT22;28550;51.228;4.528;2023-05-07T14:38:47;23.70;99.90
42905;DHT22;28550;51.228;4.528;2023-05-07T14:41:27;23.80;99.90
42905;DHT22;28550;51.228;4.528;2023-05-07T14:44:20;23.60;99.90
42905;DHT22;28550;51.228;4.528;2023-05-07T14:49:45;23.20;1.00
42905;DHT22;28550;51.228;4.528;2023-05-07T14:55:34;23.70;1.00
42905;DHT22;28550;51.228;4.528;2023-05-07T14:58:00;23.80;1.00
42905;DHT22;28550;51.228;4.528;2023-05-07T15:00:40;23.70;1.00
42905;DHT22;28550;51.228;4.528;2023-05-07T15:03:21;23.20;99.90
42905;DHT22;28550;51.228;4.528;2023-05-07T15:09:19;23.70;99.90
42905;DHT22;28550;51.228;4.528;2023-05-07T15:14:58;23.40;1.00
42905;DHT22;28550;51.228;4.528;2023-05-07T15:17:56;23.90;90.70
42905;DHT22;28550;51.228;4.528;2023-05-07T15:20:22;24.10;1.00
42905;DHT22;28550;51.228;4.528;2023-05-07T15:22:53;24.00;1.00
42905;DHT22;28550;51.228;4.528;2023-05-07T15:25:19;23.70;1.00
42905;DHT22;28550;51.228;4.528;2023-05-07T15:27:46;23.70;1.00
42905;DHT22;28550;51.228;4.528;2023-05-07T15:30:15;23.70;99.90
42905;DHT22;28550;51.228;4.528;2023-05-07T15:43:54;23.40;99.90
42905;DHT22;28550;51.228;4.528;2023-05-07T15:46:32;23.60;99.90
42905;DHT22;28550;51.228;4.528;2023-05-07T15:49:02;23.90;99.90
42905;DHT22;28550;51.228;4.528;2023-05-07T15:51:30;23.70;99.90
42905;DHT22;28550;51.228;4.528;2023-05-07T15:54:14;23.60;1.00
42905;DHT22;28550;51.228;4.528;2023-05-07T15:56:57;23.80;99.90
42905;DHT22;28550;51.228;4.528;2023-05-07T15:59:25;23.90;1.00
42905;DHT22;28550;51.228;4.528;2023-05-07T16:01:58;23.60;1.00
42905;DHT22;28550;51.228;4.528;2023-05-07T16:04:27;23.30;1.00
42905;DHT22;28550;51.228;4.528;2023-05-07T16:07:13;23.00;99.90
42905;DHT22;28550;51.228;4.528;2023-05-07T16:09:38;22.90;99.90
42905;DHT22;28550;51.228;4.528;2023-05-07T16:12:11;23.10;69.70
42905;DHT22;28550;51.228;4.528;2023-05-07T16:14:37;23.20;99.90
42905;DHT22;28550;51.228;4.528;2023-05-07T16:17:05;23.30;99.90
42905;DHT22;28550;51.228;4.528;2023-05-07T16:19:31;22.80;99.90
42905;DHT22;28550;51.228;4.528;2023-05-07T16:21:59;22.30;1.00
42905;DHT22;28550;51.228;4.528;2023-05-07T16:24:25;22.40;39.30
42905;DHT22;28550;51.228;4.528;2023-05-07T16:26:51;22.00;1.00
42905;DHT22;28550;51.228;4.528;2023-05-07T16:29:17;21.90;99.90
42905;DHT22;28550;51.228;4.528;2023-05-07T16:31:45;22.30;99.90
42905;DHT22;28550;51.228;4.528;2023-05-07T16:34:10;22.10;99.90
42905;DHT22;28550;51.228;4.528;2023-05-07T16:36:36;21.90;1.00
42905;DHT22;28550;51.228;4.528;2023-05-07T16:41:39;21.70;1.00
42905;DHT22;28550;51.228;4.528;2023-05-07T16:44:10;21.60;99.90
42905;DHT22;28550;51.228;4.528;2023-05-07T16:46:36;21.70;1.00
42905;DHT22;28550;51.228;4.528;2023-05-07T16:49:02;21.60;99.90
42905;DHT22;28550;51.228;4.528;2023-05-07T16:51:32;20.90;99.90
42905;DHT22;28550;51.228;4.528;2023-05-07T16:54:01;20.70;1.00
42905;DHT22;28550;51.228;4.528;2023-05-07T16:56:27;20.90;37.50
42905;DHT22;28550;51.228;4.528;2023-05-07T16:58:55;20.90;27.20
42905;DHT22;28550;51.228;4.528;2023-05-07T17:01:21;21.10;1.00
42905;DHT22;28550;51.228;4.528;2023-05-07T17:03:47;20.90;99.90
42905;DHT22;28550;51.228;4.528;2023-05-07T17:06:12;20.70;1.00
42905;DHT22;28550;51.228;4.528;2023-05-07T17:08:42;20.60;88.80
42905;DHT22;28550;51.228;4.528;2023-05-07T17:11:11;20.90;15.00
42905;DHT22;28550;51.228;4.528;2023-05-07T17:13:37;21.20;1.00
42905;DHT22;28550;51.228;4.528;2023-05-07T17:16:09;21.30;99.90
42905;DHT22;28550;51.228;4.528;2023-05-07T17:18:35;21.40;99.90
42905;DHT22;28550;51.228;4.528;2023-05-07T17:21:06;21.80;1.00
42905;DHT22;28550;51.228;4.528;2023-05-07T17:23:35;21.70;99.90
42905;DHT22;28550;51.228;4.528;2023-05-07T17:26:10;21.40;1.00
42905;DHT22;28550;51.228;4.528;2023-05-07T17:28:39;21.20;1.00
42905;DHT22;28550;51.228;4.528;2023-05-07T17:31:04;20.80;99.90
42905;DHT22;28550;51.228;4.528;2023-05-07T17:33:33;20.70;1.00
42905;DHT22;28550;51.228;4.528;2023-05-07T17:35:59;20.80;1.00
42905;DHT22;28550;51.228;4.528;2023-05-07T17:38:28;20.70;99.90
42905;DHT22;28550;51.228;4.528;2023-05-07T17:40:54;20.50;99.90
42905;DHT22;28550;51.228;4.528;2023-05-07T17:43:19;20.40;99.90
42905;DHT22;28550;51.228;4.528;2023-05-07T17:45:51;20.50;99.90
42905;DHT22;28550;51.228;4.528;2023-05-07T17:48:19;20.40;99.90
42905;DHT22;28550;51.228;4.528;2023-05-07T17:50:47;20.10;1.00
42905;DHT22;28550;51.228;4.528;2023-05-07T17:53:15;20.40;1.00
42905;DHT22;28550;51.228;4.528;2023-05-07T17:55:44;20.40;99.90
42905;DHT22;28550;51.228;4.528;2023-05-07T17:58:12;20.40;99.90
42905;DHT22;28550;51.228;4.528;2023-05-07T18:00:38;20.00;1.00